sensor_id;sensor_type;location;lat;lon;timestamp;pressure;altitude;pressure_sealevel;temperature;humidity
77235;BME280;66253;50.526;14.974;2023-07-16T00:02:11;98462.92;;;24.43;50.17
77235;BME280;66253;50.526;14.974;2023-07-16T00:04:40;98461.86;;;24.32;50.48
77235;BME280;66253;50.526;14.974;2023-07-16T00:07:08;98467.11;;;24.28;50.83
77235;BME280;66253;50.526;14.974;2023-07-16T00:09:36;98463.38;;;24.24;51.02
77235;BME280;66253;50.526;14.974;2023-07-16T00:12:06;98458.13;;;24.20;51.33
77235;BME280;66253;50.526;14.974;2023-07-16T00:14:34;98456.14;;;24.12;51.39
77235;BME280;66253;50.526;14.974;2023-07-16T00:17:03;98456.23;;;24.09;51.58
77235;BME280;66253;50.526;14.974;2023-07-16T00:19:31;98451.71;;;24.04;52.04
77235;BME280;66253;50.526;14.974;2023-07-16T00:21:59;98447.20;;;24.01;52.09
77235;BME280;66253;50.526;14.974;2023-07-16T00:24:28;98444.04;;;23.97;52.18
77235;BME280;66253;50.526;14.974;2023-07-16T00:26:56;98444.60;;;23.96;51.92
77235;BME280;66253;50.526;14.974;2023-07-16T00:29:25;98444.60;;;23.94;52.44
77235;BME280;66253;50.526;14.974;2023-07-16T00:31:53;98448.95;;;23.93;52.75
77235;BME280;66253;50.526;14.974;2023-07-16T00:34:21;98444.98;;;23.91;52.74
77235;BME280;66253;50.526;14.974;2023-07-16T00:36:50;98443.14;;;23.89;52.91
77235;BME280;66253;50.526;14.974;2023-07-16T00:39:18;98440.04;;;23.89;53.17
77235;BME280;66253;50.526;14.974;2023-07-16T00:41:46;98433.59;;;23.88;53.30
77235;BME280;66253;50.526;14.974;2023-07-16T00:44:14;98428.84;;;23.88;53.51
77235;BME280;66253;50.526;14.974;2023-07-16T00:46:42;98426.56;;;23.88;53.46
77235;BME280;66253;50.526;14.974;2023-07-16T00:49:11;98423.73;;;23.88;53.91
77235;BME280;66253;50.526;14.974;2023-07-16T00:51:39;98420.15;;;23.87;53.70
77235;BME280;66253;50.526;14.974;2023-07-16T00:54:09;98418.98;;;23.87;54.06
77235;BME280;66253;50.526;14.974;2023-07-16T00:56:38;98424.95;;;23.88;54.13
77235;BME280;66253;50.526;14.974;2023-07-16T00:59:06;98428.09;;;23.89;54.16
77235;BME280;66253;50.526;14.974;2023-07-16T01:01:35;98434.15;;;23.93;54.32
77235;BME280;66253;50.526;14.974;2023-07-16T01:04:03;98442.26;;;23.96;54.54
77235;BME280;66253;50.526;14.974;2023-07-16T01:06:36;98449.17;;;24.01;54.48
77235;BME280;66253;50.526;14.974;2023-07-16T01:09:11;98455.45;;;24.05;54.44
77235;BME280;66253;50.526;14.974;2023-07-16T01:11:43;98458.33;;;24.07;54.49
77235;BME280;66253;50.526;14.974;2023-07-16T01:14:13;98459.34;;;24.09;54.40
77235;BME280;66253;50.526;14.974;2023-07-16T01:16:42;98461.31;;;24.10;54.40
77235;BME280;66253;50.526;14.974;2023-07-16T01:19:11;98459.73;;;24.10;54.47
77235;BME280;66253;50.526;14.974;2023-07-16T01:21:45;98458.85;;;24.10;54.39
77235;BME280;66253;50.526;14.974;2023-07-16T01:24:29;98459.89;;;24.11;54.74
77235;BME280;66253;50.526;14.974;2023-07-16T01:27:22;98457.80;;;24.13;54.82
77235;BME280;66253;50.526;14.974;2023-07-16T01:29:56;98458.19;;;24.11;54.70
77235;BME280;66253;50.526;14.974;2023-07-16T01:32:26;98459.86;;;24.09;54.72
77235;BME280;66253;50.526;14.974;2023-07-16T01:34:55;98462.52;;;24.09;54.77
77235;BME280;66253;50.526;14.974;2023-07-16T01:37:25;98466.20;;;24.07;55.07
77235;BME280;66253;50.526;14.974;2023-07-16T01:39:53;98487.17;;;24.05;54.79
77235;BME280;66253;50.526;14.974;2023-07-16T01:42:21;98526.12;;;24.03;54.44
77235;BME280;66253;50.526;14.974;2023-07-16T01:44:50;98566.62;;;24.03;54.16
77235;BME280;66253;50.526;14.974;2023-07-16T01:47:24;98572.29;;;24.03;54.23
77235;BME280;66253;50.526;14.974;2023-07-16T01:49:57;98569.55;;;24.02;54.56
77235;BME280;66253;50.526;14.974;2023-07-16T01:52:26;98587.55;;;24.02;54.74
77235;BME280;66253;50.526;14.974;2023-07-16T01:54:54;98577.73;;;24.02;55.02
77235;BME280;66253;50.526;14.974;2023-07-16T01:57:22;98567.50;;;24.02;54.89
77235;BME280;66253;50.526;14.974;2023-07-16T01:59:50;98591.73;;;24.01;54.60
77235;BME280;66253;50.526;14.974;2023-07-16T02:02:19;98578.94;;;24.00;54.88
77235;BME280;66253;50.526;14.974;2023-07-16T02:04:47;98546.58;;;23.99;55.04
77235;BME280;66253;50.526;14.974;2023-07-16T02:07:15;98582.52;;;23.99;54.97
77235;BME280;66253;50.526;14.974;2023-07-16T02:09:43;98615.20;;;23.97;55.03
77235;BME280;66253;50.526;14.974;2023-07-16T02:12:11;98597.80;;;23.92;55.19
77235;BME280;66253;50.526;14.974;2023-07-16T02:14:40;98562.88;;;23.85;56.00
77235;BME280;66253;50.526;14.974;2023-07-16T02:17:08;98610.77;;;23.80;55.41
77235;BME280;66253;50.526;14.974;2023-07-16T02:19:36;98637.14;;;23.82;55.21
77235;BME280;66253;50.526;14.974;2023-07-16T02:22:05;98635.85;;;23.83;55.45
77235;BME280;66253;50.526;14.974;2023-07-16T02:24:33;98638.76;;;23.84;55.70
77235;BME280;66253;50.526;14.974;2023-07-16T02:27:02;98634.96;;;23.85;55.63
77235;BME280;66253;50.526;14.974;2023-07-16T02:29:30;98628.40;;;23.86;56.20
77235;BME280;66253;50.526;14.974;2023-07-16T02:31:59;98639.64;;;23.87;55.93
77235;BME280;66253;50.526;14.974;2023-07-16T02:34:27;98657.89;;;23.87;55.66
77235;BME280;66253;50.526;14.974;2023-07-16T02:36:56;98658.85;;;23.88;55.79
77235;BME280;66253;50.526;14.974;2023-07-16T02:39:25;98670.86;;;23.88;56.01
77235;BME280;66253;50.526;14.974;2023-07-16T02:41:53;98687.35;;;23.87;55.67
77235;BME280;66253;50.526;14.974;2023-07-16T02:44:21;98684.60;;;23.87;55.66
77235;BME280;66253;50.526;14.974;2023-07-16T02:46:49;98675.52;;;23.87;56.04
77235;BME280;66253;50.526;14.974;2023-07-16T02:49:18;98674.36;;;23.88;56.24
77235;BME280;66253;50.526;14.974;2023-07-16T02:51:46;98664.41;;;23.88;56.42
77235;BME280;66253;50.526;14.974;2023-07-16T02:54:14;98664.92;;;23.81;56.37
77235;BME280;66253;50.526;14.974;2023-07-16T02:56:42;98671.81;;;23.77;56.34
77235;BME280;66253;50.526;14.974;2023-07-16T02:59:10;98670.55;;;23.75;56.73
77235;BME280;66253;50.526;14.974;2023-07-16T03:01:39;98669.11;;;23.68;56.49
77235;BME280;66253;50.526;14.974;2023-07-16T03:04:07;98680.95;;;23.63;56.73
77235;BME280;66253;50.526;14.974;2023-07-16T03:06:35;98689.24;;;23.60;56.41
77235;BME280;66253;50.526;14.974;2023-07-16T03:09:04;98700.17;;;23.59;56.38
77235;BME280;66253;50.526;14.974;2023-07-16T03:11:32;98696.40;;;23.56;56.71
77235;BME280;66253;50.526;14.974;2023-07-16T03:14:00;98702.98;;;23.55;56.11
77235;BME280;66253;50.526;14.974;2023-07-16T03:16:28;98703.80;;;23.57;56.10
77235;BME280;66253;50.526;14.974;2023-07-16T03:18:57;98713.84;;;23.61;55.90
77235;BME280;66253;50.526;14.974;2023-07-16T03:21:25;98723.34;;;23.64;56.01
77235;BME280;66253;50.526;14.974;2023-07-16T03:23:53;98729.71;;;23.68;55.50
77235;BME280;66253;50.526;14.974;2023-07-16T03:26:21;98731.09;;;23.73;55.35
77235;BME280;66253;50.526;14.974;2023-07-16T03:28:49;98731.41;;;23.78;55.00
77235;BME280;66253;50.526;14.974;2023-07-16T03:31:18;98734.27;;;23.83;55.09
77235;BME280;66253;50.526;14.974;2023-07-16T03:33:46;98736.09;;;23.88;54.82
77235;BME280;66253;50.526;14.974;2023-07-16T03:36:14;98736.39;;;23.93;54.56
77235;BME280;66253;50.526;14.974;2023-07-16T03:38:42;98731.88;;;23.96;54.53
77235;BME280;66253;50.526;14.974;2023-07-16T03:41:11;98731.68;;;23.99;54.17
77235;BME280;66253;50.526;14.974;2023-07-16T03:43:39;98742.39;;;24.03;54.04
77235;BME280;66253;50.526;14.974;2023-07-16T03:46:07;98752.73;;;24.07;54.35
77235;BME280;66253;50.526;14.974;2023-07-16T03:48:35;98761.67;;;24.10;54.45
77235;BME280;66253;50.526;14.974;2023-07-16T03:51:04;98768.89;;;24.14;54.16
77235;BME280;66253;50.526;14.974;2023-07-16T03:53:32;98764.20;;;24.17;53.96
77235;BME280;66253;50.526;14.974;2023-07-16T03:56:00;98761.14;;;24.17;53.82
77235;BME280;66253;50.526;14.974;2023-07-16T03:58:28;98776.43;;;24.16;53.76
77235;BME280;66253;50.526;14.974;2023-07-16T04:00:56;98781.41;;;24.18;53.98
77235;BME280;66253;50.526;14.974;2023-07-16T04:03:25;98798.52;;;24.21;53.86
77235;BME280;66253;50.526;14.974;2023-07-16T04:05:53;98810.91;;;24.24;53.93
77235;BME280;66253;50.526;14.974;2023-07-16T04:08:28;98818.55;;;24.25;53.42
77235;BME280;66253;50.526;14.974;2023-07-16T04:10:56;98823.45;;;24.28;53.39
77235;BME280;66253;50.526;14.974;2023-07-16T04:13:24;98826.93;;;24.29;53.22
77235;BME280;66253;50.526;14.974;2023-07-16T04:15:53;98829.11;;;24.29;53.32
77235;BME280;66253;50.526;14.974;2023-07-16T04:18:22;98833.90;;;24.30;53.14
77235;BME280;66253;50.526;14.974;2023-07-16T04:20:51;98828.02;;;24.29;52.98
77235;BME280;66253;50.526;14.974;2023-07-16T04:23:19;98818.63;;;24.32;52.66
77235;BME280;66253;50.526;14.974;2023-07-16T04:25:48;98823.71;;;24.33;52.57
77235;BME280;66253;50.526;14.974;2023-07-16T04:28:18;98838.69;;;24.35;52.49
77235;BME280;66253;50.526;14.974;2023-07-16T04:30:47;98848.25;;;24.36;52.41
77235;BME280;66253;50.526;14.974;2023-07-16T04:33:15;98849.31;;;24.38;52.33
77235;BME280;66253;50.526;14.974;2023-07-16T04:35:43;98850.41;;;24.41;52.53
77235;BME280;66253;50.526;14.974;2023-07-16T04:38:11;98861.80;;;24.43;52.47
77235;BME280;66253;50.526;14.974;2023-07-16T04:40:41;98867.81;;;24.44;51.87
77235;BME280;66253;50.526;14.974;2023-07-16T04:43:09;98879.09;;;24.46;52.00
77235;BME280;66253;50.526;14.974;2023-07-16T04:45:37;98890.29;;;24.49;51.86
77235;BME280;66253;50.526;14.974;2023-07-16T04:48:06;98892.77;;;24.51;51.96
77235;BME280;66253;50.526;14.974;2023-07-16T04:50:34;98885.50;;;24.54;52.04
77235;BME280;66253;50.526;14.974;2023-07-16T04:53:02;98895.91;;;24.57;51.95
77235;BME280;66253;50.526;14.974;2023-07-16T04:55:34;98891.70;;;24.59;51.84
77235;BME280;66253;50.526;14.974;2023-07-16T04:58:02;98890.11;;;24.60;51.57
77235;BME280;66253;50.526;14.974;2023-07-16T05:00:32;98895.02;;;24.60;51.38
77235;BME280;66253;50.526;14.974;2023-07-16T05:03:00;98897.94;;;24.62;51.45
77235;BME280;66253;50.526;14.974;2023-07-16T05:05:29;98907.02;;;24.64;51.44
77235;BME280;66253;50.526;14.974;2023-07-16T05:07:57;98912.80;;;24.65;51.53
77235;BME280;66253;50.526;14.974;2023-07-16T05:10:26;98920.48;;;24.67;51.67
77235;BME280;66253;50.526;14.974;2023-07-16T05:12:54;98931.35;;;24.69;51.84
77235;BME280;66253;50.526;14.974;2023-07-16T05:15:22;98936.81;;;24.72;51.67
77235;BME280;66253;50.526;14.974;2023-07-16T05:17:51;98940.79;;;24.74;51.83
77235;BME280;66253;50.526;14.974;2023-07-16T05:20:19;98951.33;;;24.73;51.44
77235;BME280;66253;50.526;14.974;2023-07-16T05:22:47;98963.33;;;24.72;51.23
77235;BME280;66253;50.526;14.974;2023-07-16T05:25:16;98973.54;;;24.71;51.34
77235;BME280;66253;50.526;14.974;2023-07-16T05:27:44;98986.18;;;24.71;51.51
77235;BME280;66253;50.526;14.974;2023-07-16T05:30:13;99006.59;;;24.69;52.19
77235;BME280;66253;50.526;14.974;2023-07-16T05:32:41;99019.71;;;24.65;53.27
77235;BME280;66253;50.526;14.974;2023-07-16T05:35:10;99027.98;;;24.57;54.02
77235;BME280;66253;50.526;14.974;2023-07-16T05:37:38;99040.04;;;24.51;54.96
77235;BME280;66253;50.526;14.974;2023-07-16T05:40:08;99034.20;;;24.46;56.08
77235;BME280;66253;50.526;14.974;2023-07-16T05:42:36;99035.63;;;24.40;56.36
77235;BME280;66253;50.526;14.974;2023-07-16T05:45:06;99047.14;;;24.35;57.30
77235;BME280;66253;50.526;14.974;2023-07-16T05:47:34;99037.64;;;24.28;57.64
77235;BME280;66253;50.526;14.974;2023-07-16T05:50:02;99033.48;;;24.14;58.24
77235;BME280;66253;50.526;14.974;2023-07-16T05:52:31;99024.70;;;24.01;59.77
77235;BME280;66253;50.526;14.974;2023-07-16T05:54:59;99010.17;;;23.82;60.01
77235;BME280;66253;50.526;14.974;2023-07-16T05:57:27;99001.23;;;23.60;60.45
77235;BME280;66253;50.526;14.974;2023-07-16T05:59:56;98987.02;;;23.40;61.07
77235;BME280;66253;50.526;14.974;2023-07-16T06:02:24;98990.83;;;23.31;61.82
77235;BME280;66253;50.526;14.974;2023-07-16T06:04:52;98981.55;;;23.20;62.14
77235;BME280;66253;50.526;14.974;2023-07-16T06:07:20;98976.71;;;23.09;62.64
77235;BME280;66253;50.526;14.974;2023-07-16T06:09:49;98973.84;;;23.00;63.12
77235;BME280;66253;50.526;14.974;2023-07-16T06:12:17;98968.98;;;22.89;63.93
77235;BME280;66253;50.526;14.974;2023-07-16T06:14:45;98964.90;;;22.82;64.64
77235;BME280;66253;50.526;14.974;2023-07-16T06:17:13;98951.94;;;22.79;65.24
77235;BME280;66253;50.526;14.974;2023-07-16T06:19:42;98951.84;;;22.76;65.29
77235;BME280;66253;50.526;14.974;2023-07-16T06:22:10;98946.06;;;22.72;65.53
77235;BME280;66253;50.526;14.974;2023-07-16T06:24:38;98933.09;;;22.67;65.80
77235;BME280;66253;50.526;14.974;2023-07-16T06:27:07;98943.08;;;22.59;65.70
77235;BME280;66253;50.526;14.974;2023-07-16T06:29:35;98943.30;;;22.53;66.06
77235;BME280;66253;50.526;14.974;2023-07-16T06:32:04;98938.92;;;22.47;66.11
77235;BME280;66253;50.526;14.974;2023-07-16T06:34:31;98925.11;;;22.39;66.46
77235;BME280;66253;50.526;14.974;2023-07-16T06:37:00;98908.59;;;22.34;66.89
77235;BME280;66253;50.526;14.974;2023-07-16T06:39:28;98910.44;;;22.30;66.98
77235;BME280;66253;50.526;14.974;2023-07-16T06:41:56;98915.66;;;22.30;67.09
77235;BME280;66253;50.526;14.974;2023-07-16T06:44:24;98918.24;;;22.26;66.99
77235;BME280;66253;50.526;14.974;2023-07-16T06:46:53;98914.02;;;22.29;67.13
77235;BME280;66253;50.526;14.974;2023-07-16T06:49:21;98906.42;;;22.30;67.31
77235;BME280;66253;50.526;14.974;2023-07-16T06:51:49;98902.59;;;22.25;67.46
77235;BME280;66253;50.526;14.974;2023-07-16T06:54:17;98915.86;;;22.28;67.74
77235;BME280;66253;50.526;14.974;2023-07-16T06:56:46;98927.98;;;22.32;68.34
77235;BME280;66253;50.526;14.974;2023-07-16T06:59:14;98921.84;;;22.35;68.07
77235;BME280;66253;50.526;14.974;2023-07-16T07:01:42;98925.31;;;22.42;68.26
77235;BME280;66253;50.526;14.974;2023-07-16T07:04:10;98945.39;;;22.47;68.10
77235;BME280;66253;50.526;14.974;2023-07-16T07:06:39;98965.79;;;22.55;68.25
77235;BME280;66253;50.526;14.974;2023-07-16T07:09:08;98967.04;;;22.61;68.36
77235;BME280;66253;50.526;14.974;2023-07-16T07:11:36;98960.23;;;22.66;67.76
77235;BME280;66253;50.526;14.974;2023-07-16T07:14:04;98945.59;;;22.71;67.65
77235;BME280;66253;50.526;14.974;2023-07-16T07:16:32;98944.45;;;22.76;67.77
77235;BME280;66253;50.526;14.974;2023-07-16T07:19:00;98952.77;;;22.81;67.26
77235;BME280;66253;50.526;14.974;2023-07-16T07:21:28;98965.30;;;22.86;67.05
77235;BME280;66253;50.526;14.974;2023-07-16T07:23:56;98977.02;;;22.92;67.02
77235;BME280;66253;50.526;14.974;2023-07-16T07:26:25;98981.95;;;22.98;67.38
77235;BME280;66253;50.526;14.974;2023-07-16T07:28:53;98984.61;;;23.04;67.60
77235;BME280;66253;50.526;14.974;2023-07-16T07:31:21;98980.30;;;23.10;67.58
77235;BME280;66253;50.526;14.974;2023-07-16T07:33:49;98984.25;;;23.15;67.87
77235;BME280;66253;50.526;14.974;2023-07-16T07:36:18;98991.41;;;23.19;67.61
77235;BME280;66253;50.526;14.974;2023-07-16T07:38:46;98996.15;;;23.25;67.07
77235;BME280;66253;50.526;14.974;2023-07-16T07:41:14;99004.54;;;23.31;67.04
77235;BME280;66253;50.526;14.974;2023-07-16T07:43:42;99003.73;;;23.35;67.40
77235;BME280;66253;50.526;14.974;2023-07-16T07:46:11;99006.08;;;23.37;67.09
77235;BME280;66253;50.526;14.974;2023-07-16T07:48:39;99000.02;;;23.43;66.82
77235;BME280;66253;50.526;14.974;2023-07-16T07:51:07;98993.86;;;23.50;66.81
77235;BME280;66253;50.526;14.974;2023-07-16T07:53:36;98990.09;;;23.57;66.34
77235;BME280;66253;50.526;14.974;2023-07-16T07:56:04;98996.67;;;23.65;66.66
77235;BME280;66253;50.526;14.974;2023-07-16T07:58:32;98996.39;;;23.73;66.23
77235;BME280;66253;50.526;14.974;2023-07-16T08:01:06;98995.90;;;23.80;65.45
77235;BME280;66253;50.526;14.974;2023-07-16T08:03:34;98997.60;;;23.88;65.42
77235;BME280;66253;50.526;14.974;2023-07-16T08:06:03;98997.79;;;23.92;65.49
77235;BME280;66253;50.526;14.974;2023-07-16T08:08:31;98998.83;;;23.97;65.16
77235;BME280;66253;50.526;14.974;2023-07-16T08:10:59;99006.14;;;24.01;65.11
77235;BME280;66253;50.526;14.974;2023-07-16T08:13:28;99018.96;;;24.07;64.98
77235;BME280;66253;50.526;14.974;2023-07-16T08:15:56;99020.34;;;24.10;65.12
77235;BME280;66253;50.526;14.974;2023-07-16T08:18:24;99029.81;;;24.14;65.15
77235;BME280;66253;50.526;14.974;2023-07-16T08:20:53;99028.84;;;24.16;65.06
77235;BME280;66253;50.526;14.974;2023-07-16T08:23:22;99036.15;;;24.20;64.56
77235;BME280;66253;50.526;14.974;2023-07-16T08:25:50;99040.27;;;24.23;64.09
77235;BME280;66253;50.526;14.974;2023-07-16T08:28:18;99044.42;;;24.26;64.31
77235;BME280;66253;50.526;14.974;2023-07-16T08:30:49;99051.50;;;24.30;63.90
77235;BME280;66253;50.526;14.974;2023-07-16T08:33:17;99052.02;;;24.35;63.68
77235;BME280;66253;50.526;14.974;2023-07-16T08:35:45;99058.06;;;24.38;63.69
77235;BME280;66253;50.526;14.974;2023-07-16T08:38:13;99062.15;;;24.43;63.52
77235;BME280;66253;50.526;14.974;2023-07-16T08:40:42;99066.77;;;24.46;63.61
77235;BME280;66253;50.526;14.974;2023-07-16T08:43:11;99069.59;;;24.50;63.10
77235;BME280;66253;50.526;14.974;2023-07-16T08:45:41;99072.92;;;24.54;63.26
77235;BME280;66253;50.526;14.974;2023-07-16T08:48:10;99077.18;;;24.62;63.56
77235;BME280;66253;50.526;14.974;2023-07-16T08:50:38;99076.05;;;24.70;63.18
77235;BME280;66253;50.526;14.974;2023-07-16T08:53:09;99074.52;;;24.75;63.26
77235;BME280;66253;50.526;14.974;2023-07-16T08:55:38;99070.12;;;24.79;62.80
77235;BME280;66253;50.526;14.974;2023-07-16T08:58:07;99066.38;;;24.79;62.26
77235;BME280;66253;50.526;14.974;2023-07-16T09:00:34;99064.86;;;24.80;62.11
77235;BME280;66253;50.526;14.974;2023-07-16T09:03:03;99055.88;;;24.84;62.14
77235;BME280;66253;50.526;14.974;2023-07-16T09:05:32;99054.14;;;24.88;61.95
77235;BME280;66253;50.526;14.974;2023-07-16T09:08:02;99055.52;;;24.94;61.68
77235;BME280;66253;50.526;14.974;2023-07-16T09:10:31;99057.27;;;25.01;61.80
77235;BME280;66253;50.526;14.974;2023-07-16T09:13:00;99055.09;;;25.10;62.12
77235;BME280;66253;50.526;14.974;2023-07-16T09:15:31;99052.75;;;25.18;62.11
77235;BME280;66253;50.526;14.974;2023-07-16T09:18:01;99047.73;;;25.30;61.62
77235;BME280;66253;50.526;14.974;2023-07-16T09:20:30;99045.44;;;25.42;61.13
77235;BME280;66253;50.526;14.974;2023-07-16T09:22:59;99046.22;;;25.51;60.66
77235;BME280;66253;50.526;14.974;2023-07-16T09:25:31;99045.59;;;25.60;60.81
77235;BME280;66253;50.526;14.974;2023-07-16T09:28:03;99053.08;;;25.63;60.74
77235;BME280;66253;50.526;14.974;2023-07-16T09:30:33;99048.01;;;25.69;60.30
77235;BME280;66253;50.526;14.974;2023-07-16T09:33:10;99048.88;;;25.76;59.83
77235;BME280;66253;50.526;14.974;2023-07-16T09:35:39;99057.38;;;25.83;59.65
77235;BME280;66253;50.526;14.974;2023-07-16T09:38:07;99062.50;;;25.83;59.41
77235;BME280;66253;50.526;14.974;2023-07-16T09:40:36;99065.15;;;25.86;59.06
77235;BME280;66253;50.526;14.974;2023-07-16T09:43:04;99066.90;;;25.90;59.36
77235;BME280;66253;50.526;14.974;2023-07-16T09:45:32;99067.94;;;25.94;58.91
77235;BME280;66253;50.526;14.974;2023-07-16T09:48:00;99070.77;;;25.98;58.47
77235;BME280;66253;50.526;14.974;2023-07-16T09:50:31;99076.36;;;26.02;58.63
77235;BME280;66253;50.526;14.974;2023-07-16T09:53:00;99085.16;;;26.06;58.24
77235;BME280;66253;50.526;14.974;2023-07-16T09:55:30;99087.98;;;26.05;57.59
77235;BME280;66253;50.526;14.974;2023-07-16T09:58:01;99083.95;;;26.03;57.53
77235;BME280;66253;50.526;14.974;2023-07-16T10:00:30;99081.78;;;26.03;57.68
77235;BME280;66253;50.526;14.974;2023-07-16T10:03:01;99085.95;;;26.04;57.61
77235;BME280;66253;50.526;14.974;2023-07-16T10:05:29;99085.88;;;26.04;56.71
77235;BME280;66253;50.526;14.974;2023-07-16T10:07:59;99089.44;;;26.02;56.69
77235;BME280;66253;50.526;14.974;2023-07-16T10:10:39;99099.08;;;25.99;56.59
77235;BME280;66253;50.526;14.974;2023-07-16T10:13:10;99097.52;;;25.96;56.51
77235;BME280;66253;50.526;14.974;2023-07-16T10:15:49;99099.27;;;25.92;56.66
77235;BME280;66253;50.526;14.974;2023-07-16T10:18:25;99096.98;;;25.90;56.83
77235;BME280;66253;50.526;14.974;2023-07-16T10:20:59;99104.10;;;25.88;56.82
77235;BME280;66253;50.526;14.974;2023-07-16T10:23:38;99097.15;;;25.88;56.40
77235;BME280;66253;50.526;14.974;2023-07-16T10:26:07;99108.70;;;25.89;56.37
77235;BME280;66253;50.526;14.974;2023-07-16T10:28:36;99114.45;;;25.89;56.06
77235;BME280;66253;50.526;14.974;2023-07-16T10:31:05;99112.92;;;25.90;55.61
77235;BME280;66253;50.526;14.974;2023-07-16T10:33:33;99114.79;;;25.91;55.81
77235;BME280;66253;50.526;14.974;2023-07-16T10:36:02;99113.17;;;25.91;55.38
77235;BME280;66253;50.526;14.974;2023-07-16T10:38:30;99108.52;;;25.92;55.30
77235;BME280;66253;50.526;14.974;2023-07-16T10:41:07;99105.55;;;25.93;55.17
77235;BME280;66253;50.526;14.974;2023-07-16T10:43:36;99104.69;;;25.96;54.94
77235;BME280;66253;50.526;14.974;2023-07-16T10:46:04;99109.56;;;25.97;55.03
77235;BME280;66253;50.526;14.974;2023-07-16T10:48:33;99113.73;;;25.95;54.80
77235;BME280;66253;50.526;14.974;2023-07-16T10:51:01;99116.48;;;25.91;54.46
77235;BME280;66253;50.526;14.974;2023-07-16T10:53:30;99121.54;;;25.88;54.53
77235;BME280;66253;50.526;14.974;2023-07-16T10:55:59;99117.73;;;25.87;54.34
77235;BME280;66253;50.526;14.974;2023-07-16T10:58:28;99116.73;;;25.84;54.19
77235;BME280;66253;50.526;14.974;2023-07-16T11:00:56;99116.97;;;25.80;53.43
77235;BME280;66253;50.526;14.974;2023-07-16T11:03:25;99118.90;;;25.78;53.24
77235;BME280;66253;50.526;14.974;2023-07-16T11:05:55;99114.62;;;25.77;52.89
77235;BME280;66253;50.526;14.974;2023-07-16T11:08:26;99119.23;;;25.78;52.95
77235;BME280;66253;50.526;14.974;2023-07-16T11:10:58;99119.02;;;25.81;53.27
77235;BME280;66253;50.526;14.974;2023-07-16T11:13:30;99120.34;;;25.85;52.94
77235;BME280;66253;50.526;14.974;2023-07-16T11:16:08;99123.21;;;25.89;52.98
77235;BME280;66253;50.526;14.974;2023-07-16T11:18:36;99128.59;;;25.99;53.17
77235;BME280;66253;50.526;14.974;2023-07-16T11:21:04;99124.64;;;26.09;53.11
77235;BME280;66253;50.526;14.974;2023-07-16T11:23:35;99123.19;;;26.16;53.00
77235;BME280;66253;50.526;14.974;2023-07-16T11:26:04;99122.94;;;26.24;53.15
77235;BME280;66253;50.526;14.974;2023-07-16T11:28:38;99125.66;;;26.32;52.88
77235;BME280;66253;50.526;14.974;2023-07-16T11:31:14;99131.45;;;26.39;52.94
77235;BME280;66253;50.526;14.974;2023-07-16T11:33:44;99134.06;;;26.46;52.53
77235;BME280;66253;50.526;14.974;2023-07-16T11:36:12;99139.16;;;26.55;52.62
77235;BME280;66253;50.526;14.974;2023-07-16T11:38:41;99144.13;;;26.64;52.57
77235;BME280;66253;50.526;14.974;2023-07-16T11:41:09;99143.13;;;26.71;52.00
77235;BME280;66253;50.526;14.974;2023-07-16T11:43:39;99135.51;;;26.76;51.75
77235;BME280;66253;50.526;14.974;2023-07-16T11:46:16;99138.88;;;26.82;51.56
77235;BME280;66253;50.526;14.974;2023-07-16T11:48:44;99134.13;;;26.86;50.77
77235;BME280;66253;50.526;14.974;2023-07-16T11:51:13;99129.02;;;26.84;50.71
77235;BME280;66253;50.526;14.974;2023-07-16T11:53:41;99133.66;;;26.84;50.60
77235;BME280;66253;50.526;14.974;2023-07-16T11:56:09;99133.28;;;26.82;50.80
77235;BME280;66253;50.526;14.974;2023-07-16T11:58:37;99134.35;;;26.78;50.72
77235;BME280;66253;50.526;14.974;2023-07-16T12:01:06;99138.42;;;26.72;49.79
77235;BME280;66253;50.526;14.974;2023-07-16T12:03:34;99136.77;;;26.65;50.05
77235;BME280;66253;50.526;14.974;2023-07-16T12:06:02;99138.05;;;26.61;50.17
77235;BME280;66253;50.526;14.974;2023-07-16T12:08:30;99137.16;;;26.58;49.97
77235;BME280;66253;50.526;14.974;2023-07-16T12:10:59;99137.85;;;26.53;50.16
77235;BME280;66253;50.526;14.974;2023-07-16T12:13:27;99140.15;;;26.45;50.51
77235;BME280;66253;50.526;14.974;2023-07-16T12:15:55;99147.81;;;26.38;51.59
77235;BME280;66253;50.526;14.974;2023-07-16T12:18:23;99151.06;;;26.30;52.04
77235;BME280;66253;50.526;14.974;2023-07-16T12:20:52;99147.85;;;26.19;52.20
77235;BME280;66253;50.526;14.974;2023-07-16T12:23:20;99148.71;;;26.08;52.38
77235;BME280;66253;50.526;14.974;2023-07-16T12:25:48;99139.39;;;26.00;52.97
77235;BME280;66253;50.526;14.974;2023-07-16T12:28:17;99129.98;;;25.92;53.07
77235;BME280;66253;50.526;14.974;2023-07-16T12:30:45;99123.38;;;25.85;53.29
77235;BME280;66253;50.526;14.974;2023-07-16T12:33:14;99118.81;;;25.77;53.37
77235;BME280;66253;50.526;14.974;2023-07-16T12:35:42;99118.67;;;25.71;53.83
77235;BME280;66253;50.526;14.974;2023-07-16T12:38:10;99113.86;;;25.68;54.06
77235;BME280;66253;50.526;14.974;2023-07-16T12:40:39;99120.37;;;25.68;53.79
77235;BME280;66253;50.526;14.974;2023-07-16T12:43:08;99122.22;;;25.70;53.91
77235;BME280;66253;50.526;14.974;2023-07-16T12:45:36;99119.98;;;25.73;53.54
77235;BME280;66253;50.526;14.974;2023-07-16T12:48:05;99117.83;;;25.78;54.11
77235;BME280;66253;50.526;14.974;2023-07-16T12:50:34;99113.69;;;25.82;53.49
77235;BME280;66253;50.526;14.974;2023-07-16T12:53:02;99110.91;;;25.83;53.48
77235;BME280;66253;50.526;14.974;2023-07-16T12:55:31;99107.00;;;25.80;52.77
77235;BME280;66253;50.526;14.974;2023-07-16T12:57:59;99112.08;;;25.80;52.68
77235;BME280;66253;50.526;14.974;2023-07-16T13:00:27;99115.58;;;25.89;52.98